Time;durP1;ratioP1;P1;durP2;ratioP2;P2;SDS_P1;SDS_P2;PMS_P1;PMS_P2;Temp;Humidity;BMP_temperature;BMP_pressure;BME280_temperature;BME280_humidity;BME280_pressure;Samples;Min_cycle;Max_cycle;Signal;HPM_P1;HPM_P2
2022/09/02 00:01:15;;;;;;;0.60;0.60;;;;;;;;;;5132858;27;20202;-59
2022/09/02 00:04:05;;;;;;;0.40;0.40;;;;;;;;;;5136586;27;20212;-59
2022/09/02 00:06:53;;;;;;;0.40;0.40;;;;;;;;;;5130432;27;20227;-59
2022/09/02 00:09:40;;;;;;;0.50;0.50;;;;;;;;;;5131681;27;20603;-59
2022/09/02 00:12:27;;;;;;;1.23;0.50;;;;;;;;;;5130821;27;20215;-59
2022/09/02 00:15:15;;;;;;;0.50;0.50;;;;;;;;;;5142441;27;20196;-60
2022/09/02 00:18:05;;;;;;;0.57;0.57;;;;;;;;;;5130908;27;20211;-59
2022/09/02 00:20:53;;;;;;;0.50;0.50;;;;;;;;;;5139027;27;20203;-59
2022/09/02 00:23:40;;;;;;;0.47;0.47;;;;;;;;;;5131345;27;20203;-59
2022/09/02 00:26:28;;;;;;;0.50;0.50;;;;;;;;;;5136073;27;20219;-59
2022/09/02 00:29:15;;;;;;;0.87;0.70;;;;;;;;;;5134475;27;20206;-59
2022/09/02 00:32:02;;;;;;;0.50;0.50;;;;;;;;;;5137791;27;20214;-59
2022/09/02 00:34:51;;;;;;;0.50;0.50;;;;;;;;;;5138963;27;20674;-59
2022/09/02 00:37:38;;;;;;;0.57;0.57;;;;;;;;;;5141201;27;20279;-59
2022/09/02 00:40:26;;;;;;;0.43;0.43;;;;;;;;;;5136905;27;20277;-60
2022/09/02 00:43:23;;;;;;;0.50;0.50;;;;;;;;;;5130692;27;20214;-59
2022/09/02 00:46:11;;;;;;;0.67;0.67;;;;;;;;;;5133208;27;20213;-59
2022/09/02 00:49:02;;;;;;;0.50;0.50;;;;;;;;;;5135456;27;20663;-58
2022/09/02 00:51:54;;;;;;;0.50;0.50;;;;;;;;;;5130339;27;20199;-59
2022/09/02 00:54:49;;;;;;;0.60;0.60;;;;;;;;;;5129727;27;20207;-59
2022/09/02 00:57:41;;;;;;;0.60;0.60;;;;;;;;;;5145050;27;20544;-59
2022/09/02 01:00:30;;;;;;;0.50;0.50;;;;;;;;;;5134977;27;20223;-59
2022/09/02 01:03:21;;;;;;;0.43;0.43;;;;;;;;;;5133970;27;20320;-59
2022/09/02 01:06:14;;;;;;;0.50;0.50;;;;;;;;;;5131078;27;20234;-59
2022/09/02 01:09:07;;;;;;;0.53;0.53;;;;;;;;;;5130338;27;20246;-58
2022/09/02 01:11:55;;;;;;;0.60;0.60;;;;;;;;;;5132679;27;20340;-58
2022/09/02 01:14:42;;;;;;;0.57;0.57;;;;;;;;;;5127973;27;20225;-59
2022/09/02 01:17:32;;;;;;;0.77;0.67;;;;;;;;;;5129917;27;20643;-59
2022/09/02 01:20:24;;;;;;;0.50;0.50;;;;;;;;;;5134805;27;20669;-59
2022/09/02 01:23:14;;;;;;;0.40;0.40;;;;;;;;;;5131361;27;20214;-59
2022/09/02 01:26:01;;;;;;;0.40;0.40;;;;;;;;;;5137088;27;20210;-59
2022/09/02 01:28:48;;;;;;;0.53;0.53;;;;;;;;;;5131196;27;21119;-60
2022/09/02 01:31:35;;;;;;;0.40;0.40;;;;;;;;;;5141354;27;20209;-59
2022/09/02 01:34:23;;;;;;;0.50;0.50;;;;;;;;;;5130946;27;20203;-59
2022/09/02 01:37:10;;;;;;;0.50;0.50;;;;;;;;;;5134637;27;20216;-59
2022/09/02 01:39:59;;;;;;;0.40;0.40;;;;;;;;;;5127898;27;20222;-59
2022/09/02 01:42:47;;;;;;;0.40;0.40;;;;;;;;;;5130811;27;20210;-60
2022/09/02 01:45:34;;;;;;;0.50;0.50;;;;;;;;;;5126975;27;20249;-59
2022/09/02 01:48:22;;;;;;;0.50;0.50;;;;;;;;;;5130249;27;20553;-59
2022/09/02 01:51:09;;;;;;;0.30;0.30;;;;;;;;;;5135230;27;20212;-59
2022/09/02 01:53:56;;;;;;;0.57;0.47;;;;;;;;;;5133655;27;20269;-59
2022/09/02 01:56:44;;;;;;;0.30;0.30;;;;;;;;;;5129325;27;20241;-59
2022/09/02 01:59:31;;;;;;;0.50;0.50;;;;;;;;;;5128419;27;20231;-59
2022/09/02 02:02:19;;;;;;;0.47;0.47;;;;;;;;;;5140460;27;20206;-60
2022/09/02 02:05:07;;;;;;;0.60;0.60;;;;;;;;;;5127654;27;20681;-58
2022/09/02 02:07:54;;;;;;;0.50;0.50;;;;;;;;;;5132319;27;20686;-59
2022/09/02 02:10:42;;;;;;;0.97;0.30;;;;;;;;;;5129474;27;20238;-59
2022/09/02 02:13:30;;;;;;;0.40;0.40;;;;;;;;;;5137008;27;20208;-59
2022/09/02 02:16:17;;;;;;;0.30;0.30;;;;;;;;;;5129459;27;20288;-59
2022/09/02 02:19:05;;;;;;;0.43;0.43;;;;;;;;;;5139271;27;20218;-59
2022/09/02 02:21:52;;;;;;;0.40;0.40;;;;;;;;;;5131442;27;20204;-59
2022/09/02 02:24:39;;;;;;;0.53;0.50;;;;;;;;;;5132117;27;20338;-59
2022/09/02 02:27:26;;;;;;;0.40;0.40;;;;;;;;;;5133422;27;20288;-59
2022/09/02 02:30:16;;;;;;;0.40;0.40;;;;;;;;;;5128968;27;20211;-59
2022/09/02 02:33:03;;;;;;;0.50;0.50;;;;;;;;;;5128953;27;20721;-59
2022/09/02 02:35:50;;;;;;;0.40;0.40;;;;;;;;;;5125518;28;20290;-59
2022/09/02 02:38:38;;;;;;;0.40;0.40;;;;;;;;;;5128990;28;20213;-59
2022/09/02 02:41:25;;;;;;;0.60;0.60;;;;;;;;;;5132896;27;20234;-59
2022/09/02 02:44:12;;;;;;;0.40;0.40;;;;;;;;;;5129326;28;20210;-59
2022/09/02 02:47:01;;;;;;;0.30;0.30;;;;;;;;;;5140423;27;20202;-59
2022/09/02 02:49:48;;;;;;;0.40;0.40;;;;;;;;;;5129093;28;20555;-59
2022/09/02 02:52:35;;;;;;;0.47;0.47;;;;;;;;;;5134302;27;20206;-59
2022/09/02 02:55:24;;;;;;;0.30;0.30;;;;;;;;;;5133339;27;20693;-59
2022/09/02 02:58:11;;;;;;;0.30;0.30;;;;;;;;;;5128232;28;20680;-58
2022/09/02 03:00:58;;;;;;;0.40;0.40;;;;;;;;;;5130586;27;20257;-59
2022/09/02 03:03:47;;;;;;;0.43;0.43;;;;;;;;;;5136371;27;20203;-60
2022/09/02 03:06:34;;;;;;;0.30;0.30;;;;;;;;;;5132475;27;20707;-59
2022/09/02 03:09:21;;;;;;;0.40;0.40;;;;;;;;;;5126563;27;20782;-59
2022/09/02 03:12:08;;;;;;;0.60;0.60;;;;;;;;;;5136893;27;20371;-59
2022/09/02 03:14:55;;;;;;;0.30;0.30;;;;;;;;;;5129746;28;20244;-59
2022/09/02 03:17:42;;;;;;;0.60;0.60;;;;;;;;;;5135544;27;20206;-59
2022/09/02 03:20:31;;;;;;;0.50;0.50;;;;;;;;;;5136422;27;20263;-59
2022/09/02 03:23:19;;;;;;;0.33;0.33;;;;;;;;;;5130239;27;20214;-59
2022/09/02 03:26:10;;;;;;;0.40;0.40;;;;;;;;;;5128815;27;20204;-59
2022/09/02 03:28:57;;;;;;;0.40;0.40;;;;;;;;;;5134253;27;20377;-59
2022/09/02 03:31:44;;;;;;;0.27;0.27;;;;;;;;;;5133253;27;20213;-59
2022/09/02 03:34:31;;;;;;;0.43;0.43;;;;;;;;;;5137790;27;20212;-59
2022/09/02 03:37:20;;;;;;;0.30;0.30;;;;;;;;;;5130007;27;20203;-58
2022/09/02 03:40:11;;;;;;;0.40;0.40;;;;;;;;;;5142263;27;20707;-59
2022/09/02 03:42:58;;;;;;;0.40;0.40;;;;;;;;;;5135545;27;20410;-59
2022/09/02 03:45:45;;;;;;;0.60;0.60;;;;;;;;;;5140425;27;20202;-58
2022/09/02 03:48:32;;;;;;;0.40;0.40;;;;;;;;;;5135324;27;20195;-59
2022/09/02 03:51:19;;;;;;;0.37;0.37;;;;;;;;;;5133129;27;20205;-59
2022/09/02 03:54:09;;;;;;;0.40;0.40;;;;;;;;;;5136673;27;20198;-59
2022/09/02 03:56:56;;;;;;;0.53;0.43;;;;;;;;;;5145143;27;20209;-58
2022/09/02 03:59:43;;;;;;;0.40;0.40;;;;;;;;;;5128062;27;20703;-58
2022/09/02 04:02:29;;;;;;;0.47;0.47;;;;;;;;;;5129104;27;20204;-60
2022/09/02 04:05:17;;;;;;;0.30;0.30;;;;;;;;;;5136115;27;20230;-59
2022/09/02 04:08:04;;;;;;;0.43;0.43;;;;;;;;;;5135496;27;20290;-59
2022/09/02 04:10:52;;;;;;;0.83;0.60;;;;;;;;;;5134415;27;20213;-59
2022/09/02 04:13:39;;;;;;;0.40;0.40;;;;;;;;;;5134847;27;20262;-59
2022/09/02 04:16:27;;;;;;;0.53;0.53;;;;;;;;;;5137980;27;20206;-59
2022/09/02 04:19:14;;;;;;;0.50;0.50;;;;;;;;;;5131819;27;20207;-58
2022/09/02 04:22:01;;;;;;;0.37;0.37;;;;;;;;;;5138706;27;20214;-59
2022/09/02 04:24:48;;;;;;;2.03;0.90;;;;;;;;;;5129546;27;20240;-59
2022/09/02 04:27:37;;;;;;;0.23;0.23;;;;;;;;;;5136342;27;20208;-59
2022/09/02 04:30:24;;;;;;;0.30;0.30;;;;;;;;;;5142938;27;20282;-58
2022/09/02 04:33:12;;;;;;;0.50;0.40;;;;;;;;;;5135200;27;20684;-58
2022/09/02 04:35:59;;;;;;;0.40;0.40;;;;;;;;;;5135608;27;20215;-58
2022/09/02 04:38:46;;;;;;;0.50;0.50;;;;;;;;;;5135409;27;20241;-59
2022/09/02 04:41:34;;;;;;;0.50;0.50;;;;;;;;;;5141038;27;20315;-59
2022/09/02 04:44:24;;;;;;;0.30;0.30;;;;;;;;;;5132557;27;20290;-59
2022/09/02 04:47:11;;;;;;;0.30;0.30;;;;;;;;;;5130323;27;20689;-58
2022/09/02 04:49:58;;;;;;;0.30;0.30;;;;;;;;;;5133313;27;20568;-59
2022/09/02 04:52:45;;;;;;;0.33;0.33;;;;;;;;;;5137562;27;20208;-59
2022/09/02 04:55:32;;;;;;;0.20;0.20;;;;;;;;;;5131561;27;20590;-59
2022/09/02 04:58:19;;;;;;;0.90;0.37;;;;;;;;;;5128332;27;20681;-59
2022/09/02 05:01:09;;;;;;;0.33;0.33;;;;;;;;;;5138361;27;20277;-60
2022/09/02 05:03:56;;;;;;;0.40;0.40;;;;;;;;;;5130717;27;20612;-59
2022/09/02 05:06:44;;;;;;;0.40;0.40;;;;;;;;;;5134694;27;20233;-59
2022/09/02 05:09:32;;;;;;;0.40;0.40;;;;;;;;;;5131467;27;20698;-59
2022/09/02 05:12:19;;;;;;;0.40;0.40;;;;;;;;;;5139981;27;20206;-59
2022/09/02 05:15:07;;;;;;;0.83;0.60;;;;;;;;;;5131973;27;20693;-59
2022/09/02 05:17:55;;;;;;;0.40;0.40;;;;;;;;;;5131536;27;20227;-58
2022/09/02 05:20:43;;;;;;;0.50;0.50;;;;;;;;;;5129545;27;20228;-59
2022/09/02 05:23:29;;;;;;;0.40;0.40;;;;;;;;;;5139299;27;20203;-59
2022/09/02 05:26:17;;;;;;;0.50;0.50;;;;;;;;;;5132269;27;20202;-58
2022/09/02 05:29:05;;;;;;;0.60;0.60;;;;;;;;;;5141695;27;20191;-59
2022/09/02 05:31:53;;;;;;;0.40;0.40;;;;;;;;;;5127317;27;20195;-59
2022/09/02 05:34:41;;;;;;;0.60;0.60;;;;;;;;;;5139689;27;20668;-59
2022/09/02 05:37:28;;;;;;;0.60;0.60;;;;;;;;;;5129098;27;20712;-59
2022/09/02 05:40:15;;;;;;;0.60;0.60;;;;;;;;;;5129945;27;20235;-59
2022/09/02 05:43:02;;;;;;;0.70;0.70;;;;;;;;;;5129370;27;20582;-59
2022/09/02 05:45:49;;;;;;;0.80;0.80;;;;;;;;;;5133574;27;20193;-59
2022/09/02 05:51:46;;;;;;;0.97;0.97;;;;;;;;;;5131222;27;20204;-59
2022/09/02 05:54:35;;;;;;;0.80;0.80;;;;;;;;;;5136524;27;20216;-58
2022/09/02 05:57:23;;;;;;;1.00;1.00;;;;;;;;;;5136901;27;20288;-59
2022/09/02 06:00:11;;;;;;;0.90;0.90;;;;;;;;;;5131201;27;20246;-59
2022/09/02 06:02:58;;;;;;;0.83;0.83;;;;;;;;;;5129708;27;20205;-58
2022/09/02 06:05:54;;;;;;;1.33;1.00;;;;;;;;;;5134884;27;20240;-59
2022/09/02 06:08:42;;;;;;;0.90;0.90;;;;;;;;;;5127969;27;20245;-59
2022/09/02 06:11:29;;;;;;;0.90;0.90;;;;;;;;;;5135501;27;20217;-59
2022/09/02 06:14:19;;;;;;;1.00;1.00;;;;;;;;;;5129862;27;20658;-59
2022/09/02 06:17:07;;;;;;;0.80;0.80;;;;;;;;;;5131702;27;20198;-59
2022/09/02 06:19:54;;;;;;;1.00;1.00;;;;;;;;;;5133621;27;20215;-59
2022/09/02 06:22:41;;;;;;;0.70;0.70;;;;;;;;;;5139596;27;20475;-59
2022/09/02 06:25:29;;;;;;;0.90;0.90;;;;;;;;;;5125532;27;20577;-59
2022/09/02 06:28:16;;;;;;;0.90;0.90;;;;;;;;;;5131258;27;20207;-59
2022/09/02 06:31:07;;;;;;;1.10;1.10;;;;;;;;;;5126627;27;20302;-59
2022/09/02 06:33:56;;;;;;;0.90;0.90;;;;;;;;;;5137764;27;20207;-59
2022/09/02 06:36:45;;;;;;;0.83;0.83;;;;;;;;;;5131116;27;20204;-59
2022/09/02 06:39:32;;;;;;;1.10;1.10;;;;;;;;;;5134829;27;20207;-59
2022/09/02 06:42:20;;;;;;;0.90;0.90;;;;;;;;;;5126946;27;20271;-58
2022/09/02 06:45:09;;;;;;;1.00;1.00;;;;;;;;;;5138775;27;20675;-59
2022/09/02 06:47:55;;;;;;;0.90;0.90;;;;;;;;;;5128926;28;20680;-59
2022/09/02 06:50:45;;;;;;;0.93;0.93;;;;;;;;;;5140760;27;20203;-59
2022/09/02 06:53:32;;;;;;;0.60;0.60;;;;;;;;;;5133114;27;20662;-59
2022/09/02 06:56:19;;;;;;;0.93;0.93;;;;;;;;;;5138356;27;20261;-59
2022/09/02 06:59:09;;;;;;;1.05;1.05;;;;;;;;;;5130065;27;20290;-59
2022/09/02 07:01:56;;;;;;;1.27;1.17;;;;;;;;;;5128561;27;20592;-59
2022/09/02 07:07:48;;;;;;;1.17;1.17;;;;;;;;;;5136431;27;20684;-59
2022/09/02 07:10:38;;;;;;;0.95;0.95;;;;;;;;;;5125583;27;20243;-60
2022/09/02 07:13:25;;;;;;;0.95;0.95;;;;;;;;;;5129066;27;20205;-60
2022/09/02 07:16:14;;;;;;;1.30;1.00;;;;;;;;;;5137320;27;20240;-59
2022/09/02 07:19:01;;;;;;;1.00;1.00;;;;;;;;;;5137225;27;20595;-59
2022/09/02 07:21:49;;;;;;;0.80;0.80;;;;;;;;;;5135926;27;20797;-57
2022/09/02 07:24:37;;;;;;;0.80;0.80;;;;;;;;;;5136134;27;20684;-57
2022/09/02 07:27:23;;;;;;;1.05;1.05;;;;;;;;;;5138836;27;20233;-58
2022/09/02 07:30:11;;;;;;;1.10;1.02;;;;;;;;;;5131381;27;20657;-58
2022/09/02 07:33:00;;;;;;;1.15;1.15;;;;;;;;;;5137824;27;20315;-58
2022/09/02 07:35:48;;;;;;;0.90;0.90;;;;;;;;;;5136745;27;20221;-55
2022/09/02 07:38:35;;;;;;;1.55;0.90;;;;;;;;;;5135278;27;20201;-58
2022/09/02 07:41:23;;;;;;;0.77;0.77;;;;;;;;;;5139016;27;20217;-58
2022/09/02 07:44:11;;;;;;;0.93;0.93;;;;;;;;;;5141497;27;20618;-59
2022/09/02 07:46:58;;;;;;;0.90;0.90;;;;;;;;;;5133312;27;20329;-58
2022/09/02 07:49:46;;;;;;;0.98;0.98;;;;;;;;;;5134692;27;20232;-58
2022/09/02 07:52:33;;;;;;;0.82;0.82;;;;;;;;;;5136963;27;20546;-58
2022/09/02 07:55:21;;;;;;;0.88;0.88;;;;;;;;;;5146490;27;20200;-58
2022/09/02 07:58:10;;;;;;;0.80;0.80;;;;;;;;;;5134037;27;20201;-58
2022/09/02 08:00:57;;;;;;;0.95;0.95;;;;;;;;;;5143674;27;20233;-57
2022/09/02 08:03:45;;;;;;;1.00;1.00;;;;;;;;;;5132419;27;20204;-58
2022/09/02 08:06:34;;;;;;;0.80;0.80;;;;;;;;;;5136717;27;20225;-58
2022/09/02 08:09:22;;;;;;;0.68;0.68;;;;;;;;;;5138376;27;20832;-58
2022/09/02 08:12:09;;;;;;;0.80;0.80;;;;;;;;;;5131722;27;20201;-58
2022/09/02 08:14:57;;;;;;;0.95;0.95;;;;;;;;;;5132604;27;20205;-57
2022/09/02 08:17:44;;;;;;;0.90;0.90;;;;;;;;;;5130319;27;20201;-58
2022/09/02 08:20:31;;;;;;;0.70;0.70;;;;;;;;;;5132584;27;20515;-57
2022/09/02 08:23:19;;;;;;;0.85;0.85;;;;;;;;;;5131713;27;20205;-57
2022/09/02 08:26:09;;;;;;;0.80;0.80;;;;;;;;;;5138140;27;20236;-57
2022/09/02 08:28:57;;;;;;;0.70;0.70;;;;;;;;;;5143092;27;20205;-57
2022/09/02 08:31:43;;;;;;;0.80;0.80;;;;;;;;;;5132958;27;20197;-57
2022/09/02 08:34:30;;;;;;;0.60;0.60;;;;;;;;;;5142692;27;20470;-57
2022/09/02 08:37:18;;;;;;;0.73;0.73;;;;;;;;;;5137879;27;20258;-57
2022/09/02 08:40:12;;;;;;;0.60;0.60;;;;;;;;;;5138396;27;20262;-57
2022/09/02 08:43:01;;;;;;;0.90;0.90;;;;;;;;;;5139218;27;20231;-57
2022/09/02 08:45:49;;;;;;;0.70;0.70;;;;;;;;;;5137483;27;20228;-59
2022/09/02 08:48:41;;;;;;;0.90;0.90;;;;;;;;;;5130627;27;20224;-57
2022/09/02 08:51:31;;;;;;;0.55;0.55;;;;;;;;;;5130545;27;20201;-57
2022/09/02 08:54:25;;;;;;;0.60;0.60;;;;;;;;;;5130288;27;20209;-60
2022/09/02 08:57:13;;;;;;;0.75;0.75;;;;;;;;;;5128621;27;20205;-59
2022/09/02 09:00:01;;;;;;;0.70;0.70;;;;;;;;;;5135519;27;20228;-59
2022/09/02 09:02:59;;;;;;;0.70;0.70;;;;;;;;;;5127651;27;20225;-59
2022/09/02 09:05:56;;;;;;;0.75;0.75;;;;;;;;;;5136943;27;20310;-59
2022/09/02 09:08:50;;;;;;;0.70;0.70;;;;;;;;;;5131006;27;20289;-59
2022/09/02 09:11:45;;;;;;;0.50;0.50;;;;;;;;;;5142575;27;20260;-59
2022/09/02 09:14:37;;;;;;;0.60;0.60;;;;;;;;;;5130623;27;20197;-59
2022/09/02 09:17:30;;;;;;;0.65;0.65;;;;;;;;;;5139080;27;20684;-59
2022/09/02 09:20:19;;;;;;;0.43;0.43;;;;;;;;;;5132388;27;20217;-59
2022/09/02 09:23:18;;;;;;;0.57;0.57;;;;;;;;;;5136369;27;20610;-59
2022/09/02 09:26:07;;;;;;;0.60;0.60;;;;;;;;;;5139764;27;20210;-59
2022/09/02 09:28:58;;;;;;;0.60;0.60;;;;;;;;;;5127476;27;20213;-59
2022/09/02 09:31:51;;;;;;;0.50;0.50;;;;;;;;;;5134936;27;20200;-59
2022/09/02 09:35:12;;;;;;;0.50;0.50;;;;;;;;;;5131581;27;20287;-58
2022/09/02 09:37:58;;;;;;;0.50;0.50;;;;;;;;;;5034017;28;20299;-58
2022/09/02 09:40:45;;;;;;;0.40;0.38;;;;;;;;;;5038368;28;20218;-59
2022/09/02 09:43:32;;;;;;;0.47;0.47;;;;;;;;;;5125452;27;20207;-59
2022/09/02 09:46:29;;;;;;;0.40;0.40;;;;;;;;;;5129461;27;20203;-59
2022/09/02 09:49:26;;;;;;;0.55;0.55;;;;;;;;;;5142735;27;20352;-59
2022/09/02 09:52:22;;;;;;;0.50;0.50;;;;;;;;;;5132025;27;20668;-59
2022/09/02 09:55:16;;;;;;;0.30;0.30;;;;;;;;;;5134637;27;20207;-59
2022/09/02 09:58:09;;;;;;;0.50;0.50;;;;;;;;;;5132851;27;20214;-59
2022/09/02 10:00:59;;;;;;;0.40;0.40;;;;;;;;;;5137967;27;20216;-59
2022/09/02 10:03:51;;;;;;;0.45;0.45;;;;;;;;;;5131003;27;20287;-59
2022/09/02 10:06:42;;;;;;;0.40;0.40;;;;;;;;;;5130266;27;20223;-58
2022/09/02 10:09:35;;;;;;;0.40;0.40;;;;;;;;;;5129294;27;20245;-59
2022/09/02 10:12:32;;;;;;;1.02;0.50;;;;;;;;;;5132100;27;20201;-59
2022/09/02 10:15:29;;;;;;;0.30;0.30;;;;;;;;;;5135069;27;20233;-59
2022/09/02 10:18:23;;;;;;;0.30;0.30;;;;;;;;;;5128547;27;20548;-59
2022/09/02 10:21:21;;;;;;;0.50;0.50;;;;;;;;;;5133332;27;20207;-59
2022/09/02 10:24:23;;;;;;;0.40;0.40;;;;;;;;;;5127713;27;20201;-59
2022/09/02 10:27:15;;;;;;;0.30;0.30;;;;;;;;;;5130381;27;20210;-59
2022/09/02 10:30:06;;;;;;;0.30;0.30;;;;;;;;;;5128623;27;20209;-58
2022/09/02 10:33:16;;;;;;;0.30;0.30;;;;;;;;;;5132119;27;20208;-59
2022/09/02 10:36:09;;;;;;;0.30;0.30;;;;;;;;;;5131304;27;20216;-59
2022/09/02 10:39:06;;;;;;;0.20;0.20;;;;;;;;;;5132093;27;20839;-59
2022/09/02 10:42:06;;;;;;;0.20;0.20;;;;;;;;;;5130274;27;20223;-58
2022/09/02 10:45:02;;;;;;;0.30;0.30;;;;;;;;;;5136242;27;20201;-58
2022/09/02 10:47:58;;;;;;;0.47;0.47;;;;;;;;;;5129015;27;20240;-60
2022/09/02 10:50:52;;;;;;;0.30;0.30;;;;;;;;;;5132603;27;20196;-59
2022/09/02 10:53:48;;;;;;;0.30;0.30;;;;;;;;;;5135014;27;20200;-58
2022/09/02 10:56:40;;;;;;;0.40;0.40;;;;;;;;;;5136065;27;20675;-58
2022/09/02 10:59:33;;;;;;;0.40;0.40;;;;;;;;;;5141852;27;20214;-58
2022/09/02 11:02:24;;;;;;;0.15;0.15;;;;;;;;;;5132462;27;20221;-58
2022/09/02 11:05:15;;;;;;;0.20;0.20;;;;;;;;;;5133633;27;20595;-59
2022/09/02 11:08:08;;;;;;;0.38;0.38;;;;;;;;;;5135902;27;20223;-59
2022/09/02 11:11:03;;;;;;;0.20;0.20;;;;;;;;;;5140069;27;20700;-58
2022/09/02 11:13:58;;;;;;;0.30;0.20;;;;;;;;;;5136533;27;20304;-58
2022/09/02 11:16:52;;;;;;;0.63;0.20;;;;;;;;;;5137926;27;20247;-58
2022/09/02 11:19:45;;;;;;;0.47;0.15;;;;;;;;;;5134925;27;20682;-58
2022/09/02 11:22:40;;;;;;;0.20;0.20;;;;;;;;;;5130727;27;20285;-58
2022/09/02 11:25:32;;;;;;;0.40;0.30;;;;;;;;;;5135576;27;20220;-58
2022/09/02 11:28:30;;;;;;;0.40;0.40;;;;;;;;;;5133477;27;20645;-58
2022/09/02 11:31:22;;;;;;;0.20;0.20;;;;;;;;;;5131828;27;20241;-58
2022/09/02 11:34:19;;;;;;;0.17;0.17;;;;;;;;;;5131986;27;20258;-58
2022/09/02 11:37:09;;;;;;;0.35;0.35;;;;;;;;;;5134748;27;20727;-58
2022/09/02 11:40:00;;;;;;;0.20;0.20;;;;;;;;;;5135635;27;20272;-58
2022/09/02 11:43:03;;;;;;;0.47;0.47;;;;;;;;;;5142101;27;20304;-59
2022/09/02 11:46:25;;;;;;;0.20;0.20;;;;;;;;;;5133376;27;20245;-58
2022/09/02 11:49:46;;;;;;;0.47;0.38;;;;;;;;;;5133593;27;20203;-58
2022/09/02 11:52:50;;;;;;;0.35;0.35;;;;;;;;;;5132911;27;20204;-59
2022/09/02 11:55:40;;;;;;;0.38;0.30;;;;;;;;;;5131999;27;20670;-59
2022/09/02 11:58:32;;;;;;;1.20;1.20;;;;;;;;;;5136844;27;20211;-58
2022/09/02 12:01:27;;;;;;;1.65;1.65;;;;;;;;;;5132220;27;20206;-58
2022/09/02 12:04:25;;;;;;;1.35;1.35;;;;;;;;;;5133862;27;20576;-58
2022/09/02 12:07:25;;;;;;;1.02;1.02;;;;;;;;;;5133331;27;20710;-58
2022/09/02 12:10:51;;;;;;;1.05;1.05;;;;;;;;;;5141666;27;20322;-58
2022/09/02 12:13:42;;;;;;;1.15;1.05;;;;;;;;;;5132033;27;20545;-58
2022/09/02 12:16:37;;;;;;;0.80;0.80;;;;;;;;;;5135464;27;20331;-58
2022/09/02 12:19:39;;;;;;;0.82;0.82;;;;;;;;;;5137147;27;20293;-58
2022/09/02 12:22:37;;;;;;;0.90;0.90;;;;;;;;;;5130182;27;20224;-58
2022/09/02 12:25:48;;;;;;;0.90;0.90;;;;;;;;;;5136983;27;20577;-59
2022/09/02 12:28:35;;;;;;;3.40;1.10;;;;;;;;;;5130316;27;20307;-58
2022/09/02 12:34:50;;;;;;;0.90;0.90;;;;;;;;;;5118240;27;20553;-58
2022/09/02 12:37:53;;;;;;;1.10;1.10;;;;;;;;;;5113256;28;20206;-58
2022/09/02 12:40:49;;;;;;;1.73;1.10;;;;;;;;;;5110623;28;20266;-59
2022/09/02 12:43:47;;;;;;;1.00;1.00;;;;;;;;;;5109967;28;20196;-59
2022/09/02 12:46:52;;;;;;;2.95;0.80;;;;;;;;;;5111307;28;20199;-58
2022/09/02 12:49:53;;;;;;;1.30;1.20;;;;;;;;;;5108577;28;20673;-58
2022/09/02 12:52:44;;;;;;;0.85;0.85;;;;;;;;;;5114005;28;20221;-58
2022/09/02 12:55:34;;;;;;;0.88;0.88;;;;;;;;;;5111771;28;20218;-58
2022/09/02 12:58:22;;;;;;;0.90;0.90;;;;;;;;;;5107453;27;20205;-58
2022/09/02 13:01:17;;;;;;;0.90;0.90;;;;;;;;;;5116008;27;20588;-58
2022/09/02 13:04:23;;;;;;;0.75;0.75;;;;;;;;;;5111386;28;20211;-58
2022/09/02 13:07:49;;;;;;;1.45;0.82;;;;;;;;;;5109914;27;20224;-58
2022/09/02 13:11:21;;;;;;;0.70;0.70;;;;;;;;;;5119771;27;20204;-59
2022/09/02 13:14:48;;;;;;;0.63;0.63;;;;;;;;;;5130670;27;20247;-58
2022/09/02 13:17:46;;;;;;;0.80;0.80;;;;;;;;;;5129982;27;20286;-59
2022/09/02 13:21:01;;;;;;;0.80;0.80;;;;;;;;;;5131672;27;20659;-58
2022/09/02 13:24:19;;;;;;;0.60;0.60;;;;;;;;;;5131564;27;20539;-58
2022/09/02 13:27:31;;;;;;;0.70;0.70;;;;;;;;;;5143534;27;20220;-59
2022/09/02 13:30:21;;;;;;;2.13;0.80;;;;;;;;;;5134906;27;20205;-58
2022/09/02 13:33:10;;;;;;;0.85;0.85;;;;;;;;;;5131488;27;20225;-59
2022/09/02 13:35:59;;;;;;;0.90;0.90;;;;;;;;;;5134126;27;20209;-58
2022/09/02 13:38:46;;;;;;;0.90;0.90;;;;;;;;;;5137007;27;20661;-57
2022/09/02 13:41:33;;;;;;;0.70;0.70;;;;;;;;;;5133528;27;20198;-57
2022/09/02 13:44:23;;;;;;;0.57;0.57;;;;;;;;;;5126226;27;20602;-58
2022/09/02 13:47:15;;;;;;;0.75;0.75;;;;;;;;;;5121918;27;20201;-58
2022/09/02 13:50:02;;;;;;;0.75;0.75;;;;;;;;;;5120363;27;20202;-59
2022/09/02 13:52:52;;;;;;;0.70;0.70;;;;;;;;;;5119415;27;20214;-58
2022/09/02 13:55:46;;;;;;;0.70;0.70;;;;;;;;;;5118889;27;20723;-58
2022/09/02 13:58:36;;;;;;;0.90;0.90;;;;;;;;;;5120864;27;20206;-58
2022/09/02 14:01:30;;;;;;;0.60;0.60;;;;;;;;;;5117209;27;20610;-58
2022/09/02 14:04:17;;;;;;;0.82;0.82;;;;;;;;;;5123434;27;20600;-57
2022/09/02 14:07:05;;;;;;;0.70;0.70;;;;;;;;;;5120897;27;20230;-58
2022/09/02 14:09:53;;;;;;;0.73;0.60;;;;;;;;;;5123782;27;20208;-57
2022/09/02 14:12:41;;;;;;;1.02;1.02;;;;;;;;;;5120544;27;20267;-58
2022/09/02 14:15:29;;;;;;;0.98;0.98;;;;;;;;;;5113066;27;20234;-58
2022/09/02 14:18:20;;;;;;;0.82;0.82;;;;;;;;;;5108782;27;20569;-58
2022/09/02 14:21:16;;;;;;;0.70;0.70;;;;;;;;;;5121473;27;20645;-58
2022/09/02 14:24:04;;;;;;;0.60;0.60;;;;;;;;;;5120403;27;20693;-57
2022/09/02 14:26:54;;;;;;;0.63;0.63;;;;;;;;;;5127400;27;20298;-58
2022/09/02 14:29:44;;;;;;;0.63;0.63;;;;;;;;;;5121628;27;20202;-58
2022/09/02 14:32:31;;;;;;;0.45;0.45;;;;;;;;;;5125039;27;20247;-58
2022/09/02 14:35:23;;;;;;;1.15;0.90;;;;;;;;;;5118971;27;20334;-58
2022/09/02 14:38:23;;;;;;;0.60;0.60;;;;;;;;;;5118370;27;20247;-58
2022/09/02 14:41:12;;;;;;;0.65;0.65;;;;;;;;;;5116043;27;20228;-58
2022/09/02 14:44:08;;;;;;;0.80;0.80;;;;;;;;;;5118314;27;20649;-58
2022/09/02 14:46:57;;;;;;;0.55;0.55;;;;;;;;;;5120998;27;20198;-58
2022/09/02 14:49:47;;;;;;;0.57;0.57;;;;;;;;;;5116727;27;20654;-58
2022/09/02 14:52:37;;;;;;;0.68;0.68;;;;;;;;;;5119653;27;20212;-58
2022/09/02 14:55:47;;;;;;;0.60;0.60;;;;;;;;;;5120003;27;20209;-58
2022/09/02 14:58:34;;;;;;;0.65;0.65;;;;;;;;;;5119474;27;20238;-58
2022/09/02 15:01:20;;;;;;;0.85;0.85;;;;;;;;;;5118577;27;20198;-58
2022/09/02 15:04:09;;;;;;;0.60;0.60;;;;;;;;;;5116399;27;20212;-58
2022/09/02 15:06:56;;;;;;;0.50;0.50;;;;;;;;;;5116863;27;20232;-58
2022/09/02 15:09:44;;;;;;;0.50;0.50;;;;;;;;;;5115033;27;20296;-59
2022/09/02 15:12:34;;;;;;;0.63;0.63;;;;;;;;;;5117036;27;20703;-58
2022/09/02 15:15:21;;;;;;;0.55;0.55;;;;;;;;;;5118501;27;20223;-58
2022/09/02 15:18:08;;;;;;;0.60;0.60;;;;;;;;;;5117995;27;20213;-59
2022/09/02 15:20:56;;;;;;;0.68;0.68;;;;;;;;;;5113330;27;20205;-59
2022/09/02 15:23:43;;;;;;;0.45;0.45;;;;;;;;;;5116824;27;20625;-59
2022/09/02 15:26:31;;;;;;;0.55;0.55;;;;;;;;;;5124705;27;20201;-59
2022/09/02 15:29:18;;;;;;;0.50;0.50;;;;;;;;;;5117762;27;20244;-59
2022/09/02 15:32:06;;;;;;;0.45;0.43;;;;;;;;;;5116945;27;20216;-59
2022/09/02 15:34:53;;;;;;;0.40;0.40;;;;;;;;;;5119199;27;20603;-59
2022/09/02 15:37:40;;;;;;;0.70;0.70;;;;;;;;;;5114283;27;20235;-59
2022/09/02 15:40:27;;;;;;;0.50;0.50;;;;;;;;;;5124607;27;20663;-59
2022/09/02 15:43:17;;;;;;;0.50;0.50;;;;;;;;;;5118506;27;20219;-58
2022/09/02 15:46:05;;;;;;;0.50;0.50;;;;;;;;;;5117089;27;20342;-60
2022/09/02 15:48:54;;;;;;;0.38;0.38;;;;;;;;;;5115656;27;20213;-59
2022/09/02 15:51:44;;;;;;;0.40;0.40;;;;;;;;;;5117804;27;20209;-60
2022/09/02 15:54:31;;;;;;;0.65;0.65;;;;;;;;;;5117937;27;20224;-60
2022/09/02 15:57:18;;;;;;;0.50;0.50;;;;;;;;;;5118263;27;20201;-59
2022/09/02 16:00:08;;;;;;;0.40;0.40;;;;;;;;;;5110750;27;20265;-59
2022/09/02 16:02:56;;;;;;;0.30;0.30;;;;;;;;;;5114649;27;20236;-59
2022/09/02 16:05:43;;;;;;;0.47;0.47;;;;;;;;;;5114089;27;20235;-59
2022/09/02 16:08:29;;;;;;;0.50;0.50;;;;;;;;;;5114381;27;20687;-60
2022/09/02 16:11:17;;;;;;;0.30;0.30;;;;;;;;;;5118339;27;20206;-60
2022/09/02 16:14:04;;;;;;;0.40;0.40;;;;;;;;;;5112842;27;20284;-60
2022/09/02 16:16:54;;;;;;;0.50;0.50;;;;;;;;;;5119081;27;20211;-59
2022/09/02 16:19:41;;;;;;;0.33;0.33;;;;;;;;;;5128795;27;20228;-59
2022/09/02 16:22:28;;;;;;;0.60;0.60;;;;;;;;;;5119288;27;20333;-59
2022/09/02 16:25:15;;;;;;;0.50;0.50;;;;;;;;;;5115212;27;20194;-59
2022/09/02 16:28:03;;;;;;;0.50;0.50;;;;;;;;;;5117949;28;20282;-59
2022/09/02 16:30:51;;;;;;;0.40;0.40;;;;;;;;;;5120278;28;20213;-59
2022/09/02 16:33:41;;;;;;;0.40;0.40;;;;;;;;;;5117111;28;20273;-59
2022/09/02 16:36:29;;;;;;;0.43;0.43;;;;;;;;;;5123942;28;20216;-59
2022/09/02 16:39:18;;;;;;;0.23;0.23;;;;;;;;;;5120945;28;20232;-59
2022/09/02 16:42:05;;;;;;;0.40;0.40;;;;;;;;;;5122566;28;20406;-59
2022/09/02 16:44:52;;;;;;;0.40;0.40;;;;;;;;;;5118858;28;20205;-59
2022/09/02 16:47:39;;;;;;;0.30;0.30;;;;;;;;;;5118577;28;20588;-59
2022/09/02 16:50:28;;;;;;;0.40;0.40;;;;;;;;;;5119903;28;20213;-59
2022/09/02 16:53:16;;;;;;;0.40;0.40;;;;;;;;;;5114511;28;20207;-59
2022/09/02 16:56:03;;;;;;;0.27;0.27;;;;;;;;;;5121179;28;20358;-59
2022/09/02 16:58:51;;;;;;;0.30;0.30;;;;;;;;;;5117243;28;20220;-59
2022/09/02 17:01:39;;;;;;;0.40;0.40;;;;;;;;;;5118413;28;20215;-59
2022/09/02 17:04:26;;;;;;;0.30;0.30;;;;;;;;;;5118407;28;20205;-58
2022/09/02 17:07:15;;;;;;;0.30;0.30;;;;;;;;;;5118677;28;20720;-59
2022/09/02 17:10:02;;;;;;;0.40;0.40;;;;;;;;;;5116047;28;20288;-59
2022/09/02 17:12:49;;;;;;;0.30;0.30;;;;;;;;;;5119415;28;20203;-59